Time;durP1;ratioP1;P1;durP2;ratioP2;P2;SDS_P1;SDS_P2;PMS_P1;PMS_P2;Temp;Humidity;BMP_temperature;BMP_pressure;BME280_temperature;BME280_humidity;BME280_pressure;Samples;Min_cycle;Max_cycle;Signal;HPM_P1;HPM_P2
2022/06/12 00:01:20;;;;;;;8.00;4.00;;;;;;;;;;5037427;28;20033;-69
2022/06/12 00:03:47;;;;;;;8.02;3.80;;;;;;;;;;5037006;28;20029;-69
2022/06/12 00:06:14;;;;;;;7.05;3.83;;;;;;;;;;5037319;28;20600;-69
2022/06/12 00:08:40;;;;;;;3.85;3.55;;;;;;;;;;5037435;28;20497;-72
2022/06/12 00:11:08;;;;;;;7.53;3.78;;;;;;;;;;5037328;28;20052;-69
2022/06/12 00:13:41;;;;;;;4.82;3.95;;;;;;;;;;5037021;28;20034;-69
2022/06/12 00:16:09;;;;;;;5.97;3.70;;;;;;;;;;5037266;28;20052;-69
2022/06/12 00:18:36;;;;;;;8.13;3.88;;;;;;;;;;5036855;28;20116;-69
2022/06/12 00:21:10;;;;;;;9.77;3.88;;;;;;;;;;5037296;28;20079;-69
2022/06/12 00:23:37;;;;;;;5.55;3.80;;;;;;;;;;5036955;28;20120;-69
2022/06/12 00:26:03;;;;;;;7.00;4.03;;;;;;;;;;5036973;28;20036;-70
2022/06/12 00:28:29;;;;;;;7.40;3.90;;;;;;;;;;5037386;28;20037;-71
2022/06/12 00:30:54;;;;;;;5.75;3.33;;;;;;;;;;5037170;28;20447;-69
2022/06/12 00:33:21;;;;;;;4.95;3.60;;;;;;;;;;5036829;28;20103;-70
2022/06/12 00:35:47;;;;;;;4.43;4.03;;;;;;;;;;5037161;28;20033;-71
2022/06/12 00:38:12;;;;;;;3.97;3.55;;;;;;;;;;5019455;28;20083;-69
2022/06/12 00:40:38;;;;;;;5.00;3.45;;;;;;;;;;5037256;28;20441;-69
2022/06/12 00:43:04;;;;;;;3.60;3.30;;;;;;;;;;5036730;28;20041;-70
2022/06/12 00:45:46;;;;;;;4.90;3.65;;;;;;;;;;5037021;28;20041;-71
2022/06/12 00:48:12;;;;;;;4.82;4.25;;;;;;;;;;5037168;28;20060;-70
2022/06/12 00:50:43;;;;;;;3.80;3.50;;;;;;;;;;5036913;28;20462;-70
2022/06/12 00:53:15;;;;;;;6.50;3.53;;;;;;;;;;5036608;28;20119;-68
2022/06/12 00:55:48;;;;;;;;;;;;;;;;;;5035916;28;20040;-70
2022/06/12 00:58:18;;;;;;;7.35;3.83;;;;;;;;;;5034005;28;20023;-70
2022/06/12 01:00:45;;;;;;;4.32;3.92;;;;;;;;;;5033549;28;20037;-72
2022/06/12 01:03:11;;;;;;;8.20;4.10;;;;;;;;;;5033384;28;20033;-69
2022/06/12 01:08:23;;;;;;;9.77;4.38;;;;;;;;;;5033905;28;20072;-69
2022/06/12 01:10:52;;;;;;;5.10;4.57;;;;;;;;;;5033453;28;20033;-69
2022/06/12 01:13:21;;;;;;;13.15;5.07;;;;;;;;;;5033152;28;20394;-69
2022/06/12 01:15:52;;;;;;;12.32;4.80;;;;;;;;;;5015738;28;20075;-69
2022/06/12 01:18:21;;;;;;;9.43;4.68;;;;;;;;;;5015944;28;20391;-69
2022/06/12 01:21:02;;;;;;;5.00;4.25;;;;;;;;;;5033461;28;20033;-69
2022/06/12 01:23:27;;;;;;;7.38;4.10;;;;;;;;;;5033339;28;20037;-69
2022/06/12 01:26:20;;;;;;;11.35;4.53;;;;;;;;;;5033267;28;20041;-70
2022/06/12 01:29:14;;;;;;;7.70;3.80;;;;;;;;;;5033485;28;20490;-69
2022/06/12 01:32:07;;;;;;;4.80;4.30;;;;;;;;;;5029094;28;20180;-69
2022/06/12 01:34:51;;;;;;;4.57;3.80;;;;;;;;;;5032699;28;20069;-69
2022/06/12 01:37:43;;;;;;;9.07;3.97;;;;;;;;;;5033014;28;20025;-69
2022/06/12 01:40:20;;;;;;;4.47;4.07;;;;;;;;;;5022309;28;20054;-69
2022/06/12 01:42:52;;;;;;;10.93;3.95;;;;;;;;;;5033457;28;20120;-70
2022/06/12 01:45:34;;;;;;;6.78;3.97;;;;;;;;;;5032807;28;20048;-70
2022/06/12 01:48:26;;;;;;;4.88;3.78;;;;;;;;;;5033316;28;20045;-69
2022/06/12 01:51:02;;;;;;;6.22;4.43;;;;;;;;;;5043537;28;20145;-69
2022/06/12 01:53:45;;;;;;;5.20;3.80;;;;;;;;;;5052422;28;20077;-70
2022/06/12 01:56:44;;;;;;;5.57;4.25;;;;;;;;;;5052963;28;20080;-69
2022/06/12 01:59:19;;;;;;;4.82;4.35;;;;;;;;;;5035624;28;20139;-70
2022/06/12 02:01:54;;;;;;;4.18;3.80;;;;;;;;;;5052934;28;20036;-69
2022/06/12 02:04:32;;;;;;;9.15;4.07;;;;;;;;;;5052027;28;20531;-70
2022/06/12 02:07:29;;;;;;;8.95;4.50;;;;;;;;;;5052346;28;20033;-69
2022/06/12 02:10:01;;;;;;;4.78;3.67;;;;;;;;;;5034647;28;20091;-70
2022/06/12 02:15:29;;;;;;;6.28;3.97;;;;;;;;;;5051916;28;20068;-69
2022/06/12 02:18:06;;;;;;;3.53;3.22;;;;;;;;;;5052519;28;20042;-70
2022/06/12 02:20:36;;;;;;;7.60;4.07;;;;;;;;;;5052203;28;20029;-69
2022/06/12 02:23:08;;;;;;;7.30;3.97;;;;;;;;;;5051661;28;20064;-70
2022/06/12 02:25:38;;;;;;;4.15;3.85;;;;;;;;;;5052199;28;20029;-69
2022/06/12 02:28:12;;;;;;;4.22;3.50;;;;;;;;;;5052364;28;20116;-69
2022/06/12 02:30:42;;;;;;;4.43;3.60;;;;;;;;;;5052075;28;20033;-69
2022/06/12 02:33:14;;;;;;;6.00;3.70;;;;;;;;;;5051377;28;20036;-69
2022/06/12 02:35:48;;;;;;;4.70;3.75;;;;;;;;;;5051973;28;20072;-69
2022/06/12 02:38:19;;;;;;;4.07;3.72;;;;;;;;;;5052079;28;20032;-69
2022/06/12 02:40:50;;;;;;;8.45;4.13;;;;;;;;;;5052016;28;20482;-70
2022/06/12 02:43:20;;;;;;;4.63;3.87;;;;;;;;;;5051312;28;20035;-70
2022/06/12 02:45:57;;;;;;;6.75;3.58;;;;;;;;;;5051723;28;20047;-69
2022/06/12 02:48:23;;;;;;;5.10;3.60;;;;;;;;;;5051945;28;20505;-70
2022/06/12 02:51:13;;;;;;;6.28;3.85;;;;;;;;;;5051617;28;20090;-69
2022/06/12 02:53:49;;;;;;;4.72;4.05;;;;;;;;;;5051217;28;20118;-70
2022/06/12 02:56:25;;;;;;;6.78;4.22;;;;;;;;;;5051198;28;20048;-69
2022/06/12 02:59:01;;;;;;;4.75;3.42;;;;;;;;;;5051615;28;20064;-70
2022/06/12 03:01:40;;;;;;;4.35;3.90;;;;;;;;;;5051543;28;20029;-69
2022/06/12 03:04:14;;;;;;;4.03;3.72;;;;;;;;;;5051014;28;20692;-69
2022/06/12 03:06:40;;;;;;;5.07;3.70;;;;;;;;;;5051509;28;20040;-72
2022/06/12 03:09:06;;;;;;;5.18;3.40;;;;;;;;;;5051590;28;20040;-71
2022/06/12 03:11:36;;;;;;;4.20;3.72;;;;;;;;;;5048463;28;20107;-71
2022/06/12 03:14:08;;;;;;;5.35;3.78;;;;;;;;;;5050809;28;20033;-71
2022/06/12 03:16:37;;;;;;;;;;;;;;;;;;5033974;28;20122;-72
2022/06/12 03:19:23;;;;;;;3.95;3.65;;;;;;;;;;5050557;28;20336;-71
2022/06/12 03:22:05;;;;;;;8.45;4.18;;;;;;;;;;5033221;28;20041;-71
2022/06/12 03:24:34;;;;;;;7.35;3.85;;;;;;;;;;5032876;28;20040;-71
2022/06/12 03:27:17;;;;;;;6.15;3.97;;;;;;;;;;5033210;28;20399;-69
2022/06/12 03:29:47;;;;;;;6.95;4.20;;;;;;;;;;5050922;28;20029;-71
2022/06/12 03:32:22;;;;;;;4.90;4.50;;;;;;;;;;5033422;28;20508;-71
2022/06/12 03:34:53;;;;;;;4.63;4.07;;;;;;;;;;5050459;28;20037;-70
2022/06/12 03:37:30;;;;;;;6.23;4.20;;;;;;;;;;5050716;28;20033;-71
2022/06/12 03:40:18;;;;;;;9.48;4.30;;;;;;;;;;5051133;28;20122;-71
2022/06/12 03:43:10;;;;;;;5.05;3.95;;;;;;;;;;5051231;28;20136;-72
2022/06/12 03:46:00;;;;;;;5.00;4.07;;;;;;;;;;5032888;28;20033;-72
2022/06/12 03:48:38;;;;;;;5.03;3.70;;;;;;;;;;5051068;28;20079;-72
2022/06/12 03:51:14;;;;;;;8.50;4.18;;;;;;;;;;5032997;28;20086;-72
2022/06/12 03:53:51;;;;;;;4.90;3.72;;;;;;;;;;5050463;28;20032;-72
2022/06/12 03:59:29;;;;;;;5.88;4.00;;;;;;;;;;5050830;28;20060;-71
2022/06/12 04:01:55;;;;;;;6.97;3.90;;;;;;;;;;5050867;28;20029;-71
2022/06/12 04:04:24;;;;;;;3.88;3.50;;;;;;;;;;5050240;28;20032;-71
2022/06/12 04:06:51;;;;;;;3.88;3.35;;;;;;;;;;5050662;28;20037;-71
2022/06/12 04:09:21;;;;;;;4.22;3.58;;;;;;;;;;5050964;28;20036;-71
2022/06/12 04:11:59;;;;;;;4.22;3.80;;;;;;;;;;5047561;28;20061;-71
2022/06/12 04:14:31;;;;;;;5.25;3.70;;;;;;;;;;5050151;28;20025;-71
2022/06/12 04:17:00;;;;;;;8.10;3.83;;;;;;;;;;5050832;28;20128;-70
2022/06/12 04:19:28;;;;;;;4.65;4.13;;;;;;;;;;5050584;28;20033;-71
2022/06/12 04:22:14;;;;;;;5.50;3.78;;;;;;;;;;5050488;28;20116;-71
2022/06/12 04:24:46;;;;;;;3.60;3.30;;;;;;;;;;5032064;28;20044;-71
2022/06/12 04:27:22;;;;;;;5.80;3.60;;;;;;;;;;5050553;28;20041;-70
2022/06/12 04:29:52;;;;;;;5.43;3.80;;;;;;;;;;5050583;28;20618;-71
2022/06/12 04:32:18;;;;;;;5.15;3.72;;;;;;;;;;5035951;28;20028;-71
2022/06/12 04:34:44;;;;;;;4.80;3.95;;;;;;;;;;5053528;28;20494;-71
2022/06/12 04:37:13;;;;;;;4.15;3.50;;;;;;;;;;5053985;28;20045;-71
2022/06/12 04:39:40;;;;;;;6.40;3.42;;;;;;;;;;5054329;28;20039;-71
2022/06/12 04:42:06;;;;;;;4.97;3.38;;;;;;;;;;5035953;28;20033;-71
2022/06/12 04:44:32;;;;;;;3.38;3.08;;;;;;;;;;5053562;28;20051;-71
2022/06/12 04:46:59;;;;;;;5.07;3.10;;;;;;;;;;5054222;28;20036;-71
2022/06/12 04:49:28;;;;;;;3.78;3.38;;;;;;;;;;5054010;28;20051;-71
2022/06/12 04:51:58;;;;;;;3.72;3.42;;;;;;;;;;5054299;28;20367;-71
2022/06/12 04:54:25;;;;;;;6.05;3.65;;;;;;;;;;5053376;28;20033;-71
2022/06/12 04:56:51;;;;;;;4.22;3.83;;;;;;;;;;5053952;28;20406;-71
2022/06/12 04:59:19;;;;;;;4.55;3.75;;;;;;;;;;5053976;28;20474;-71
2022/06/12 05:01:45;;;;;;;6.22;3.17;;;;;;;;;;5053819;28;20037;-70
2022/06/12 05:04:11;;;;;;;4.18;2.85;;;;;;;;;;5053285;28;20033;-71
2022/06/12 05:06:39;;;;;;;3.25;2.63;;;;;;;;;;5053665;28;20070;-68
2022/06/12 05:09:05;;;;;;;3.22;2.40;;;;;;;;;;5035988;28;20033;-68
2022/06/12 05:11:31;;;;;;;3.17;2.40;;;;;;;;;;5053421;28;20122;-68
2022/06/12 05:13:57;;;;;;;2.95;2.42;;;;;;;;;;5053231;28;20052;-68
2022/06/12 05:16:30;;;;;;;2.83;2.50;;;;;;;;;;5053559;28;20090;-71
2022/06/12 05:18:56;;;;;;;5.95;2.60;;;;;;;;;;5053325;28;20147;-70
2022/06/12 05:21:23;;;;;;;3.33;2.83;;;;;;;;;;5053418;28;20115;-70
2022/06/12 05:23:49;;;;;;;2.72;2.53;;;;;;;;;;5052990;28;20490;-69
2022/06/12 05:26:17;;;;;;;3.60;2.80;;;;;;;;;;5053246;28;20087;-72
2022/06/12 05:28:43;;;;;;;2.80;2.42;;;;;;;;;;5053279;28;20036;-69
2022/06/12 05:31:09;;;;;;;3.15;2.85;;;;;;;;;;5053260;28;20036;-70
2022/06/12 05:33:34;;;;;;;4.03;2.40;;;;;;;;;;5052718;28;20036;-69
2022/06/12 05:35:59;;;;;;;2.90;2.40;;;;;;;;;;5053082;28;20182;-69
2022/06/12 05:38:25;;;;;;;4.13;2.85;;;;;;;;;;5053150;28;20119;-69
2022/06/12 05:40:50;;;;;;;2.85;2.55;;;;;;;;;;5053098;28;20072;-72
2022/06/12 05:43:16;;;;;;;2.53;2.33;;;;;;;;;;5051853;28;20036;-72
2022/06/12 05:45:42;;;;;;;2.53;2.33;;;;;;;;;;5052610;28;20477;-69
2022/06/12 05:48:17;;;;;;;3.33;2.40;;;;;;;;;;5053143;28;20520;-69
2022/06/12 05:50:55;;;;;;;2.80;2.40;;;;;;;;;;5052654;28;20040;-69
2022/06/12 05:53:23;;;;;;;3.22;2.50;;;;;;;;;;5052339;28;20052;-70
2022/06/12 05:55:50;;;;;;;3.22;2.58;;;;;;;;;;5052538;28;20122;-70
2022/06/12 05:58:16;;;;;;;2.60;2.40;;;;;;;;;;5052581;28;20033;-70
2022/06/12 06:00:42;;;;;;;2.15;2.05;;;;;;;;;;5052557;28;20036;-72
2022/06/12 06:03:08;;;;;;;6.28;2.38;;;;;;;;;;5052751;28;20115;-69
2022/06/12 06:05:38;;;;;;;2.45;2.25;;;;;;;;;;5051997;28;20124;-70
2022/06/12 06:08:05;;;;;;;3.58;1.80;;;;;;;;;;5052501;28;20394;-70
2022/06/12 06:10:31;;;;;;;6.47;2.17;;;;;;;;;;5052346;28;20088;-72
2022/06/12 06:12:56;;;;;;;2.50;2.30;;;;;;;;;;5050412;28;20486;-72
2022/06/12 06:15:23;;;;;;;2.00;1.90;;;;;;;;;;5033788;28;20037;-72
2022/06/12 06:17:49;;;;;;;2.45;2.25;;;;;;;;;;5052381;28;20421;-69
2022/06/12 06:20:20;;;;;;;3.38;2.05;;;;;;;;;;5052124;28;20016;-69
2022/06/12 06:22:46;;;;;;;3.20;2.40;;;;;;;;;;5052378;28;20086;-70
2022/06/12 06:25:11;;;;;;;1.83;1.73;;;;;;;;;;5033476;28;20037;-69
2022/06/12 06:27:37;;;;;;;1.85;1.60;;;;;;;;;;5052281;28;20037;-70
2022/06/12 06:30:03;;;;;;;3.33;1.90;;;;;;;;;;5052142;28;20033;-69
2022/06/12 06:32:29;;;;;;;2.72;1.90;;;;;;;;;;5051985;28;20037;-72
2022/06/12 06:34:55;;;;;;;6.32;2.15;;;;;;;;;;5051281;28;20033;-70
2022/06/12 06:37:20;;;;;;;3.75;1.60;;;;;;;;;;5051778;28;20029;-70
2022/06/12 06:39:45;;;;;;;4.05;1.92;;;;;;;;;;5052067;28;20029;-70
2022/06/12 06:42:11;;;;;;;5.18;1.90;;;;;;;;;;5017615;28;20037;-70
2022/06/12 06:47:26;;;;;;;3.75;1.92;;;;;;;;;;5051754;28;20040;-70
2022/06/12 06:49:51;;;;;;;1.85;1.67;;;;;;;;;;5051628;28;20090;-70
2022/06/12 06:52:17;;;;;;;6.68;2.03;;;;;;;;;;5051337;28;20037;-72
2022/06/12 06:54:43;;;;;;;5.60;1.65;;;;;;;;;;5032135;28;20032;-71
2022/06/12 06:57:09;;;;;;;3.28;1.90;;;;;;;;;;5051695;28;20044;-69
2022/06/12 06:59:35;;;;;;;4.05;2.00;;;;;;;;;;5051656;28;20512;-70
2022/06/12 07:02:01;;;;;;;6.55;1.80;;;;;;;;;;5051464;28;20056;-71
2022/06/12 07:04:27;;;;;;;2.72;1.80;;;;;;;;;;5050785;28;20041;-70
2022/06/12 07:06:52;;;;;;;2.00;1.77;;;;;;;;;;5053136;28;20040;-73
2022/06/12 07:09:18;;;;;;;1.95;1.77;;;;;;;;;;5051829;28;20037;-73
2022/06/12 07:11:44;;;;;;;2.78;1.75;;;;;;;;;;5033428;28;20466;-71
2022/06/12 07:14:09;;;;;;;1.77;1.67;;;;;;;;;;5050835;28;20040;-70
2022/06/12 07:16:39;;;;;;;2.63;1.77;;;;;;;;;;5051472;28;20104;-73
2022/06/12 07:19:05;;;;;;;1.65;1.55;;;;;;;;;;5051578;28;20037;-73
2022/06/12 07:21:31;;;;;;;3.67;1.50;;;;;;;;;;5033439;28;20083;-73
2022/06/12 07:23:56;;;;;;;2.70;1.80;;;;;;;;;;5033290;28;20136;-72
2022/06/12 07:26:29;;;;;;;4.55;2.20;;;;;;;;;;5033279;28;20523;-72
2022/06/12 07:28:54;;;;;;;2.38;1.73;;;;;;;;;;5051116;28;20086;-72
2022/06/12 07:31:21;;;;;;;3.90;1.88;;;;;;;;;;5051159;28;20045;-72
2022/06/12 07:33:47;;;;;;;2.80;1.67;;;;;;;;;;5050696;28;20069;-72
2022/06/12 07:36:14;;;;;;;5.45;1.85;;;;;;;;;;5050840;28;20061;-72
2022/06/12 07:38:41;;;;;;;2.00;1.73;;;;;;;;;;5051161;28;20048;-72
2022/06/12 07:41:10;;;;;;;1.98;1.70;;;;;;;;;;5050965;28;20505;-71
2022/06/12 07:43:36;;;;;;;2.38;1.80;;;;;;;;;;5050359;28;20032;-72
2022/06/12 07:46:09;;;;;;;4.22;1.88;;;;;;;;;;5032771;28;20555;-72
2022/06/12 07:48:35;;;;;;;2.75;1.88;;;;;;;;;;5033219;28;20076;-71
2022/06/12 07:51:04;;;;;;;4.80;1.85;;;;;;;;;;5050690;28;20037;-72
2022/06/12 07:53:30;;;;;;;2.28;1.65;;;;;;;;;;5050679;28;20028;-72
2022/06/12 07:55:57;;;;;;;2.00;1.90;;;;;;;;;;5050653;28;20115;-72
2022/06/12 07:58:24;;;;;;;2.10;1.95;;;;;;;;;;5050712;28;20037;-72
2022/06/12 08:00:52;;;;;;;1.58;1.48;;;;;;;;;;5050765;28;20036;-72
2022/06/12 08:03:17;;;;;;;1.60;1.50;;;;;;;;;;5050810;28;20033;-72
2022/06/12 08:05:43;;;;;;;1.50;1.40;;;;;;;;;;5051063;28;20513;-72
2022/06/12 08:08:09;;;;;;;2.75;1.80;;;;;;;;;;5054754;28;20462;-72
2022/06/12 08:10:34;;;;;;;1.70;1.60;;;;;;;;;;5054201;28;20123;-72
2022/06/12 08:13:06;;;;;;;2.25;1.58;;;;;;;;;;5054522;28;20040;-71
2022/06/12 08:15:33;;;;;;;2.17;1.98;;;;;;;;;;5054258;28;20041;-72
2022/06/12 08:17:59;;;;;;;3.85;1.67;;;;;;;;;;5054422;28;20033;-72
2022/06/12 08:20:30;;;;;;;2.45;1.50;;;;;;;;;;5036648;28;20159;-72
2022/06/12 08:22:55;;;;;;;;;;;;;;;;;;5054872;28;20498;-72
2022/06/12 08:25:22;;;;;;;4.32;1.70;;;;;;;;;;5053632;28;19934;-72
2022/06/12 08:27:47;;;;;;;3.47;1.67;;;;;;;;;;5036658;28;20040;-72
2022/06/12 08:30:14;;;;;;;2.00;1.80;;;;;;;;;;5054301;28;20394;-72
2022/06/12 08:32:41;;;;;;;1.92;1.60;;;;;;;;;;5054303;28;20071;-72
2022/06/12 08:35:13;;;;;;;2.13;1.70;;;;;;;;;;5053592;28;20116;-72
2022/06/12 08:37:39;;;;;;;1.50;1.40;;;;;;;;;;5054415;28;20029;-72
2022/06/12 08:40:14;;;;;;;1.98;1.65;;;;;;;;;;5054198;28;20106;-72
2022/06/12 08:42:56;;;;;;;4.13;1.80;;;;;;;;;;5054053;28;20475;-72
2022/06/12 08:45:26;;;;;;;2.17;1.48;;;;;;;;;;5053489;28;20140;-72
2022/06/12 08:48:02;;;;;;;2.50;1.63;;;;;;;;;;5054228;28;20033;-72
2022/06/12 08:50:51;;;;;;;3.50;1.30;;;;;;;;;;5053905;28;20345;-72
2022/06/12 08:53:43;;;;;;;3.72;1.40;;;;;;;;;;5036064;28;20068;-72
2022/06/12 08:56:15;;;;;;;1.60;1.50;;;;;;;;;;5053718;28;20085;-72
2022/06/12 08:58:49;;;;;;;4.35;1.33;;;;;;;;;;5053968;28;20083;-72
2022/06/12 09:01:15;;;;;;;5.10;1.40;;;;;;;;;;5053003;28;20067;-72
2022/06/12 09:03:49;;;;;;;1.45;1.35;;;;;;;;;;5035131;28;20507;-72
2022/06/12 09:06:30;;;;;;;1.58;1.00;;;;;;;;;;5053830;28;20037;-72
2022/06/12 09:09:17;;;;;;;2.45;1.10;;;;;;;;;;5035818;28;20112;-71
2022/06/12 09:11:48;;;;;;;4.68;1.20;;;;;;;;;;5050488;28;20658;-72
2022/06/12 09:14:31;;;;;;;1.73;1.20;;;;;;;;;;5053068;28;20037;-72
2022/06/12 09:17:09;;;;;;;1.20;1.10;;;;;;;;;;5052533;28;20759;-72
2022/06/12 09:19:48;;;;;;;1.50;1.30;;;;;;;;;;5053649;28;20029;-72
2022/06/12 09:22:38;;;;;;;4.78;1.27;;;;;;;;;;5053563;28;20033;-72
2022/06/12 09:25:19;;;;;;;5.68;1.35;;;;;;;;;;5052746;28;20095;-72
2022/06/12 09:27:44;;;;;;;2.45;1.23;;;;;;;;;;5053400;28;20040;-72
2022/06/12 09:30:36;;;;;;;4.10;1.20;;;;;;;;;;5053457;28;20436;-72
2022/06/12 09:33:01;;;;;;;1.88;1.27;;;;;;;;;;5045099;28;20075;-72
2022/06/12 09:35:38;;;;;;;3.78;1.23;;;;;;;;;;5052484;28;20497;-72
2022/06/12 09:38:25;;;;;;;1.95;1.02;;;;;;;;;;5053248;28;20118;-72
2022/06/12 09:40:50;;;;;;;1.73;1.10;;;;;;;;;;5053044;28;20444;-72
2022/06/12 09:43:34;;;;;;;1.92;1.30;;;;;;;;;;5053216;28;20068;-72
2022/06/12 09:45:59;;;;;;;1.75;1.02;;;;;;;;;;5034536;28;20117;-71
2022/06/12 09:48:52;;;;;;;2.05;1.00;;;;;;;;;;5052807;28;20040;-71
2022/06/12 09:51:26;;;;;;;2.03;1.27;;;;;;;;;;5052858;28;20033;-72
2022/06/12 09:54:17;;;;;;;3.80;1.00;;;;;;;;;;5052656;28;20044;-72
2022/06/12 09:56:55;;;;;;;1.17;1.00;;;;;;;;;;5052776;28;20028;-72
2022/06/12 09:59:49;;;;;;;0.80;0.80;;;;;;;;;;5052917;28;20094;-72
2022/06/12 10:02:22;;;;;;;1.73;0.93;;;;;;;;;;5052606;28;20033;-72
2022/06/12 10:04:51;;;;;;;3.22;1.02;;;;;;;;;;5052154;28;20029;-72
2022/06/12 10:07:31;;;;;;;1.45;0.90;;;;;;;;;;5052436;28;20037;-72
2022/06/12 10:10:06;;;;;;;1.85;1.20;;;;;;;;;;5052766;28;20060;-72
2022/06/12 10:12:38;;;;;;;1.00;0.95;;;;;;;;;;5052461;28;20087;-72
2022/06/12 10:15:15;;;;;;;1.67;1.05;;;;;;;;;;5051863;28;20065;-73
2022/06/12 10:17:56;;;;;;;1.20;1.10;;;;;;;;;;5052466;28;20037;-72
2022/06/12 10:20:29;;;;;;;;;;;;;;;;;;5052843;28;20512;-72
2022/06/12 10:22:55;;;;;;;1.95;1.10;;;;;;;;;;5052481;28;19916;-72
2022/06/12 10:25:27;;;;;;;1.33;1.23;;;;;;;;;;5051637;28;20037;-72
2022/06/12 10:27:56;;;;;;;1.23;1.02;;;;;;;;;;5052381;28;20112;-72
2022/06/12 10:30:31;;;;;;;4.10;0.90;;;;;;;;;;5051947;28;20135;-72
2022/06/12 10:33:07;;;;;;;2.75;1.10;;;;;;;;;;5052121;28;20032;-72
2022/06/12 10:35:33;;;;;;;1.20;1.10;;;;;;;;;;5051515;28;20040;-72
2022/06/12 10:38:06;;;;;;;1.60;1.30;;;;;;;;;;5034141;28;20047;-73
2022/06/12 10:40:33;;;;;;;1.83;1.20;;;;;;;;;;5052145;28;20033;-72
2022/06/12 10:43:06;;;;;;;1.23;0.90;;;;;;;;;;5051834;28;20090;-72
2022/06/12 10:45:37;;;;;;;2.22;1.20;;;;;;;;;;5051323;28;20547;-72
2022/06/12 10:48:25;;;;;;;1.90;1.20;;;;;;;;;;5051821;28;20040;-72
2022/06/12 10:50:57;;;;;;;2.75;1.00;;;;;;;;;;5051847;28;20119;-73
2022/06/12 10:53:26;;;;;;;1.30;1.15;;;;;;;;;;5034120;28;20036;-73
2022/06/12 10:56:11;;;;;;;3.38;1.20;;;;;;;;;;5050994;28;20084;-73
2022/06/12 10:59:00;;;;;;;1.17;0.93;;;;;;;;;;5052081;28;20412;-73
2022/06/12 11:01:57;;;;;;;1.10;1.00;;;;;;;;;;5033564;28;20505;-73
2022/06/12 11:04:46;;;;;;;1.08;1.00;;;;;;;;;;5033282;28;20039;-72
2022/06/12 11:07:22;;;;;;;1.50;0.95;;;;;;;;;;5051492;28;20036;-72
2022/06/12 11:09:56;;;;;;;1.30;0.80;;;;;;;;;;5051387;28;20382;-73
2022/06/12 11:12:41;;;;;;;0.98;0.98;;;;;;;;;;5030761;28;20029;-73
2022/06/12 11:15:50;;;;;;;1.08;0.95;;;;;;;;;;5033106;28;20067;-72
2022/06/12 11:18:44;;;;;;;1.58;1.20;;;;;;;;;;5051549;28;20116;-72
2022/06/12 11:21:29;;;;;;;3.85;0.90;;;;;;;;;;5027112;28;20055;-72
2022/06/12 11:24:22;;;;;;;0.85;0.85;;;;;;;;;;5032793;28;20036;-72
2022/06/12 11:27:11;;;;;;;1.80;1.10;;;;;;;;;;5051293;28;20135;-73
2022/06/12 11:29:51;;;;;;;1.20;1.00;;;;;;;;;;5051391;28;20043;-73
2022/06/12 11:32:51;;;;;;;2.88;1.10;;;;;;;;;;5033461;28;20673;-73
2022/06/12 11:35:40;;;;;;;1.55;1.20;;;;;;;;;;5021495;28;20052;-73
2022/06/12 11:38:21;;;;;;;1.77;1.10;;;;;;;;;;5033291;28;20411;-72
2022/06/12 11:41:04;;;;;;;1.33;1.17;;;;;;;;;;5033118;28;20441;-73
2022/06/12 11:43:37;;;;;;;3.35;0.98;;;;;;;;;;5051220;28;20450;-73
2022/06/12 11:46:28;;;;;;;1.40;0.90;;;;;;;;;;5050330;28;20040;-73
2022/06/12 11:49:19;;;;;;;2.42;1.00;;;;;;;;;;5051150;28;20048;-73
2022/06/12 11:51:57;;;;;;;3.47;0.95;;;;;;;;;;5033179;28;20037;-72
2022/06/12 11:54:51;;;;;;;1.33;0.98;;;;;;;;;;5032566;28;20397;-72
2022/06/12 11:57:22;;;;;;;1.02;0.95;;;;;;;;;;5051020;28;20116;-72
2022/06/12 12:00:03;;;;;;;1.10;1.00;;;;;;;;;;5050778;28;20070;-73
2022/06/12 12:02:56;;;;;;;2.08;1.00;;;;;;;;;;5050930;28;20079;-73
2022/06/12 12:05:56;;;;;;;1.60;1.00;;;;;;;;;;5050243;28;20037;-73
2022/06/12 12:09:03;;;;;;;0.80;0.80;;;;;;;;;;5019638;28;20045;-71
2022/06/12 12:11:42;;;;;;;0.90;0.90;;;;;;;;;;5048046;28;20091;-72
2022/06/12 12:14:13;;;;;;;2.10;1.13;;;;;;;;;;5050146;28;20037;-72
2022/06/12 12:16:40;;;;;;;;;;;;;;;;;;5051322;28;20104;-72
2022/06/12 12:19:11;;;;;;;1.05;0.90;;;;;;;;;;5050763;28;19959;-72
2022/06/12 12:21:42;;;;;;;1.15;0.80;;;;;;;;;;5050832;28;20115;-72
2022/06/12 12:24:14;;;;;;;2.30;1.00;;;;;;;;;;5050231;28;20040;-72
2022/06/12 12:26:42;;;;;;;0.93;0.88;;;;;;;;;;5032869;28;20550;-71
2022/06/12 12:29:22;;;;;;;0.77;0.77;;;;;;;;;;5050450;28;20470;-73
2022/06/12 12:31:49;;;;;;;0.90;0.90;;;;;;;;;;5050519;28;20490;-71
2022/06/12 12:34:16;;;;;;;1.02;0.90;;;;;;;;;;5049891;28;20033;-72
2022/06/12 12:42:32;;;;;;;3.70;0.90;;;;;;;;;;5050766;28;20033;-71
2022/06/12 12:45:24;;;;;;;1.37;1.00;;;;;;;;;;5049917;28;20044;-71
2022/06/12 12:48:09;;;;;;;1.50;0.80;;;;;;;;;;5050559;28;20144;-72
2022/06/12 12:50:42;;;;;;;2.60;0.90;;;;;;;;;;5050453;28;20063;-71
2022/06/12 12:53:20;;;;;;;1.50;0.90;;;;;;;;;;5053272;28;20044;-71
2022/06/12 12:56:01;;;;;;;2.38;1.10;;;;;;;;;;5035440;28;20516;-71
2022/06/12 12:58:27;;;;;;;1.85;1.10;;;;;;;;;;5054231;28;20029;-72
2022/06/12 13:01:20;;;;;;;1.48;1.10;;;;;;;;;;5053797;28;20496;-72
2022/06/12 13:03:53;;;;;;;1.30;1.13;;;;;;;;;;5054049;28;20103;-72
2022/06/12 13:06:31;;;;;;;2.65;1.20;;;;;;;;;;5053177;28;20086;-72
2022/06/12 13:09:11;;;;;;;2.60;0.85;;;;;;;;;;5053921;28;20033;-71
2022/06/12 13:12:01;;;;;;;1.50;0.93;;;;;;;;;;5053800;28;20462;-72
2022/06/12 13:15:00;;;;;;;3.22;1.00;;;;;;;;;;5053038;28;20079;-72
2022/06/12 13:18:07;;;;;;;1.45;1.00;;;;;;;;;;5053767;28;20486;-72
2022/06/12 13:20:57;;;;;;;2.13;1.00;;;;;;;;;;5053739;28;20043;-71
2022/06/12 13:23:37;;;;;;;3.88;0.80;;;;;;;;;;5053852;28;20056;-71
2022/06/12 13:26:07;;;;;;;0.73;0.73;;;;;;;;;;5052690;28;20047;-71
2022/06/12 13:28:34;;;;;;;1.13;0.90;;;;;;;;;;5053205;28;20485;-71
2022/06/12 13:31:01;;;;;;;1.55;1.02;;;;;;;;;;5053202;28;20133;-71
2022/06/12 13:33:36;;;;;;;0.90;0.90;;;;;;;;;;5052932;28;20041;-71
2022/06/12 13:36:11;;;;;;;1.02;0.88;;;;;;;;;;5052462;28;20120;-71
2022/06/12 13:38:49;;;;;;;3.17;1.20;;;;;;;;;;5053184;28;20067;-71
2022/06/12 13:41:34;;;;;;;2.90;1.00;;;;;;;;;;5053094;28;20025;-72
2022/06/12 13:44:20;;;;;;;1.05;0.95;;;;;;;;;;5053075;28;20090;-72
2022/06/12 13:46:46;;;;;;;3.35;0.90;;;;;;;;;;5053199;28;20033;-71
2022/06/12 13:49:41;;;;;;;1.70;1.10;;;;;;;;;;5052958;28;20367;-71
2022/06/12 13:52:59;;;;;;;2.08;0.90;;;;;;;;;;5052680;28;20037;-71
2022/06/12 13:55:27;;;;;;;1.05;0.93;;;;;;;;;;5030671;28;20053;-72
2022/06/12 13:57:55;;;;;;;1.02;0.90;;;;;;;;;;5052992;28;20470;-73
2022/06/12 14:00:33;;;;;;;1.05;1.00;;;;;;;;;;5053070;28;20090;-71
2022/06/12 14:02:59;;;;;;;1.77;0.90;;;;;;;;;;5052296;28;20029;-72
2022/06/12 14:05:31;;;;;;;3.78;1.17;;;;;;;;;;5051853;28;20097;-72
2022/06/12 14:07:58;;;;;;;1.63;1.02;;;;;;;;;;5018462;28;20033;-72
2022/06/12 14:10:33;;;;;;;1.38;1.00;;;;;;;;;;5052704;28;20037;-72
2022/06/12 14:13:03;;;;;;;3.53;0.90;;;;;;;;;;5050772;28;20040;-72
2022/06/12 14:15:39;;;;;;;1.38;0.85;;;;;;;;;;5052071;28;20099;-72
2022/06/12 14:18:07;;;;;;;1.45;1.10;;;;;;;;;;5052694;28;20366;-71
2022/06/12 14:20:36;;;;;;;4.03;0.98;;;;;;;;;;5052483;28;20037;-72
2022/06/12 14:23:20;;;;;;;1.08;0.98;;;;;;;;;;5034666;28;20114;-72
2022/06/12 14:25:52;;;;;;;1.25;0.90;;;;;;;;;;5051683;28;20108;-72
2022/06/12 14:28:19;;;;;;;1.35;1.08;;;;;;;;;;5052425;28;20044;-72
2022/06/12 14:30:46;;;;;;;1.73;1.05;;;;;;;;;;5052256;28;20036;-71
2022/06/12 14:33:33;;;;;;;1.17;0.95;;;;;;;;;;5052162;28;20060;-72
2022/06/12 14:36:04;;;;;;;1.17;1.00;;;;;;;;;;5051365;28;20124;-71
2022/06/12 14:38:32;;;;;;;2.45;1.20;;;;;;;;;;5052135;28;20506;-71
2022/06/12 14:40:58;;;;;;;1.42;1.10;;;;;;;;;;5052162;28;20056;-71
2022/06/12 14:43:30;;;;;;;1.20;1.10;;;;;;;;;;5051825;28;20418;-71
2022/06/12 14:46:01;;;;;;;1.77;1.30;;;;;;;;;;5051443;28;20028;-72
2022/06/12 14:48:34;;;;;;;1.02;1.02;;;;;;;;;;5051896;28;20048;-71
2022/06/12 14:51:00;;;;;;;1.52;0.90;;;;;;;;;;5051919;28;20091;-71
2022/06/12 14:53:26;;;;;;;1.30;1.10;;;;;;;;;;5051670;28;20040;-72
2022/06/12 14:55:53;;;;;;;2.00;1.25;;;;;;;;;;5051028;28;20043;-72
2022/06/12 14:58:32;;;;;;;1.40;1.30;;;;;;;;;;5033873;28;20132;-72
2022/06/12 15:01:00;;;;;;;2.28;1.13;;;;;;;;;;5051425;28;20029;-72
2022/06/12 15:03:27;;;;;;;4.05;1.20;;;;;;;;;;5051598;28;20032;-72
2022/06/12 15:05:53;;;;;;;1.73;1.05;;;;;;;;;;5050874;28;20033;-72
2022/06/12 15:08:19;;;;;;;6.45;1.27;;;;;;;;;;5051623;28;20033;-71
2022/06/12 15:10:44;;;;;;;1.45;1.15;;;;;;;;;;5051479;28;20032;-72
2022/06/12 15:13:16;;;;;;;1.55;1.15;;;;;;;;;;5051471;28;20048;-71
2022/06/12 15:15:41;;;;;;;;;;;;;;;;;;5050314;28;20292;-72
2022/06/12 15:18:07;;;;;;;1.48;1.20;;;;;;;;;;5051306;28;19959;-72
2022/06/12 15:20:32;;;;;;;1.20;1.02;;;;;;;;;;5051301;28;20080;-71
2022/06/12 15:22:57;;;;;;;1.60;1.10;;;;;;;;;;5051254;28;20102;-72
2022/06/12 15:31:00;;;;;;;3.78;1.05;;;;;;;;;;5051161;28;20144;-72
2022/06/12 15:33:27;;;;;;;1.25;1.10;;;;;;;;;;5051117;28;20055;-72
2022/06/12 15:35:57;;;;;;;3.28;1.10;;;;;;;;;;5032519;28;20044;-71
2022/06/12 15:38:24;;;;;;;3.92;1.02;;;;;;;;;;5050911;28;20033;-72
2022/06/12 15:40:49;;;;;;;3.00;1.55;;;;;;;;;;5050888;28;20024;-72
2022/06/12 15:43:15;;;;;;;3.42;1.30;;;;;;;;;;5050993;28;20060;-71
2022/06/12 15:45:40;;;;;;;6.10;4.93;;;;;;;;;;5050287;28;20072;-71